createdAt,value
2019-02-18T00:00:45.978Z,11.00
2019-02-18T00:03:40.552Z,10.60
2019-02-18T00:06:04.616Z,9.83
2019-02-18T00:08:46.929Z,10.60
2019-02-18T00:11:21.038Z,11.07
2019-02-18T00:14:09.233Z,11.40
2019-02-18T00:16:39.158Z,10.40
2019-02-18T00:19:09.722Z,9.20
2019-02-18T00:21:40.179Z,10.30
2019-02-18T00:24:11.471Z,9.27
2019-02-18T00:26:56.509Z,10.00
2019-02-18T00:29:27.433Z,10.90
2019-02-18T00:31:57.672Z,9.90
2019-02-18T00:34:51.879Z,8.10
2019-02-18T00:37:25.651Z,9.20
2019-02-18T00:39:59.235Z,7.80
2019-02-18T00:42:29.231Z,8.07
2019-02-18T00:44:59.709Z,7.47
2019-02-18T00:47:35.572Z,9.83
2019-02-18T00:50:13.037Z,8.75
2019-02-18T00:52:50.712Z,8.60
2019-02-18T00:55:21.675Z,8.07
2019-02-18T00:57:56.097Z,8.77
2019-02-18T01:00:26.623Z,9.03
2019-02-18T01:03:03.708Z,8.80
2019-02-18T01:05:49.239Z,8.93
2019-02-18T01:08:32.515Z,8.47
2019-02-18T01:11:11.627Z,8.27
2019-02-18T01:13:51.228Z,7.20
2019-02-18T01:16:22.902Z,8.43
2019-02-18T01:18:54.492Z,8.17
2019-02-18T01:21:51.995Z,8.83
2019-02-18T01:24:51.195Z,8.10
2019-02-18T01:27:26.937Z,8.00
2019-02-18T01:29:56.859Z,7.90
2019-02-18T01:32:35.220Z,7.50
2019-02-18T01:35:32.216Z,7.20
2019-02-18T01:38:13.928Z,8.30
2019-02-18T01:40:44.412Z,9.10
2019-02-18T01:43:19.920Z,8.63
2019-02-18T01:45:50.753Z,9.00
2019-02-18T01:48:20.797Z,8.33
2019-02-18T01:50:51.257Z,8.27
2019-02-18T01:53:22.112Z,8.47
2019-02-18T01:55:52.597Z,8.40
2019-02-18T01:58:23.162Z,7.80
2019-02-18T02:00:53.263Z,8.50
2019-02-18T02:03:25.156Z,8.20
2019-02-18T02:05:55.838Z,7.83
2019-02-18T02:08:28.509Z,6.97
2019-02-18T02:10:59.188Z,8.63
2019-02-18T02:13:39.423Z,7.40
2019-02-18T02:16:13.929Z,7.07
2019-02-18T02:18:46.650Z,7.90
2019-02-18T02:21:32.825Z,8.43
2019-02-18T02:24:06.596Z,8.00
2019-02-18T02:26:38.807Z,7.93
2019-02-18T02:29:18.715Z,8.47
2019-02-18T02:31:52.575Z,7.30
2019-02-18T02:35:07.891Z,7.10
2019-02-18T02:37:39.823Z,7.57
2019-02-18T02:40:20.765Z,8.20
2019-02-18T02:42:49.972Z,8.00
2019-02-18T02:45:24.730Z,7.60
2019-02-18T02:48:02.755Z,7.50
2019-02-18T02:50:38.078Z,7.90
2019-02-18T02:53:13.286Z,8.00
2019-02-18T02:55:47.325Z,8.60
2019-02-18T02:58:27.518Z,8.30
2019-02-18T03:01:04.710Z,8.60
2019-02-18T03:03:41.290Z,7.23
2019-02-18T03:06:19.731Z,7.57
2019-02-18T03:08:47.242Z,8.90
2019-02-18T03:11:18.917Z,8.07
2019-02-18T03:13:52.354Z,8.23
2019-02-18T03:16:23.588Z,8.43
2019-02-18T03:18:54.851Z,7.73
2019-02-18T03:21:29.851Z,8.20
2019-02-18T03:24:03.048Z,8.33
2019-02-18T03:26:33.690Z,7.90
2019-02-18T03:29:38.126Z,8.53
2019-02-18T03:32:08.254Z,8.23
2019-02-18T03:34:47.210Z,7.93
2019-02-18T03:37:21.680Z,7.80
2019-02-18T03:39:53.404Z,7.47
2019-02-18T03:42:26.134Z,6.80
2019-02-18T03:44:56.366Z,7.42
2019-02-18T03:47:27.799Z,8.43
2019-02-18T03:50:07.658Z,7.33
2019-02-18T03:52:40.811Z,8.57
2019-02-18T03:55:13.092Z,8.17
2019-02-18T03:57:50.079Z,8.07
2019-02-18T04:00:24.551Z,7.67
2019-02-18T04:02:58.686Z,7.60
2019-02-18T04:05:28.925Z,7.97
2019-02-18T04:08:00.893Z,7.80
2019-02-18T04:10:41.201Z,7.87
2019-02-18T04:13:16.265Z,8.27
2019-02-18T04:15:46.511Z,8.43
2019-02-18T04:18:19.943Z,8.87
2019-02-18T04:20:49.902Z,7.83
2019-02-18T04:23:19.880Z,7.43
2019-02-18T04:25:55.656Z,8.20
2019-02-18T04:28:37.228Z,8.63
2019-02-18T04:31:07.393Z,8.23
2019-02-18T04:33:38.304Z,7.60
2019-02-18T04:36:09.615Z,8.70
2019-02-18T04:39:00.540Z,7.53
2019-02-18T04:41:38.126Z,7.57
2019-02-18T04:44:10.927Z,7.87
2019-02-18T04:47:01.143Z,7.93
2019-02-18T04:49:43.418Z,7.50
2019-02-18T04:52:27.905Z,7.07
2019-02-18T04:54:58.084Z,7.37
2019-02-18T04:57:28.183Z,7.50
2019-02-18T05:00:08.413Z,6.97
2019-02-18T05:02:37.168Z,6.00
2019-02-18T05:05:09.412Z,6.63
2019-02-18T05:07:40.395Z,6.03
2019-02-18T05:10:10.603Z,6.70
2019-02-18T05:12:49.111Z,7.03
2019-02-18T05:15:23.382Z,7.57
2019-02-18T05:17:53.676Z,7.67
2019-02-18T05:20:24.757Z,6.93
2019-02-18T05:22:56.718Z,7.80
2019-02-18T05:25:27.796Z,6.67
2019-02-18T05:28:20.951Z,6.37
2019-02-18T05:30:54.000Z,6.03
2019-02-18T05:33:36.576Z,7.33
2019-02-18T05:36:06.931Z,8.00
2019-02-18T05:38:37.581Z,10.17
2019-02-18T05:41:12.137Z,9.67
2019-02-18T05:43:42.590Z,12.93
2019-02-18T05:46:13.666Z,18.60
2019-02-18T05:48:45.113Z,17.63
2019-02-18T05:51:29.949Z,15.80
2019-02-18T05:54:07.243Z,11.70
2019-02-18T05:57:01.286Z,11.00
2019-02-18T06:00:00.359Z,11.17
2019-02-18T06:06:17.986Z,9.17
2019-02-18T06:08:49.107Z,9.30
2019-02-18T06:11:24.428Z,8.93
2019-02-18T06:15:03.340Z,9.40
2019-02-18T06:26:07.716Z,10.57
2019-02-18T06:44:52.483Z,7.87
2019-02-18T07:24:56.211Z,10.20
2019-02-18T07:27:26.335Z,9.80
2019-02-18T07:29:57.743Z,11.30
2019-02-18T07:32:28.508Z,11.90
2019-02-18T07:34:58.715Z,12.80
2019-02-18T07:37:28.411Z,10.27
2019-02-18T07:55:56.941Z,8.33
2019-02-18T09:22:31.529Z,7.67
2019-02-18T09:25:55.588Z,7.73
2019-02-18T09:33:00.681Z,6.30
2019-02-18T09:58:35.403Z,5.83
2019-02-18T10:29:16.450Z,6.00
2019-02-18T10:58:32.031Z,5.23
2019-02-18T11:35:15.123Z,6.80
2019-02-18T11:52:20.921Z,6.23
2019-02-18T11:54:50.889Z,6.67
2019-02-18T11:57:21.214Z,7.30
2019-02-18T11:59:51.361Z,6.47
2019-02-18T12:02:25.935Z,6.80
2019-02-18T12:04:56.216Z,5.60
2019-02-18T12:07:39.989Z,4.90
2019-02-18T12:10:11.684Z,4.60
2019-02-18T12:12:45.645Z,4.40
2019-02-18T12:15:22.284Z,5.80
2019-02-18T12:17:55.790Z,4.30
2019-02-18T12:21:08.559Z,4.50
2019-02-18T12:23:39.054Z,4.60
2019-02-18T12:26:10.041Z,4.50
2019-02-18T12:28:40.447Z,4.67
2019-02-18T12:31:11.623Z,5.17
2019-02-18T12:33:44.776Z,4.90
2019-02-18T12:36:15.724Z,5.17
2019-02-18T12:38:45.784Z,4.90
2019-02-18T12:41:16.072Z,4.67
2019-02-18T12:43:47.949Z,4.83
2019-02-18T12:46:17.855Z,5.23
2019-02-18T12:48:50.603Z,4.67
2019-02-18T12:51:20.998Z,4.60
2019-02-18T12:54:05.017Z,4.57
2019-02-18T12:56:42.537Z,4.33
2019-02-18T12:59:13.121Z,5.53
2019-02-18T13:02:19.695Z,5.47
2019-02-18T13:04:46.251Z,4.90
2019-02-18T13:08:25.281Z,4.33
2019-02-18T13:10:18.677Z,5.23
2019-02-18T13:12:55.799Z,4.83
2019-02-18T13:15:31.450Z,4.70
2019-02-18T13:20:32.931Z,4.73
2019-02-18T13:23:05.860Z,4.63
2019-02-18T13:25:35.711Z,4.30
2019-02-18T13:28:08.784Z,5.33
2019-02-18T13:30:39.059Z,4.60
2019-02-18T13:33:09.321Z,4.40
2019-02-18T13:35:40.663Z,3.93
2019-02-18T13:39:46.096Z,4.40
2019-02-18T13:41:15.803Z,3.87
2019-02-18T13:47:16.047Z,3.83
2019-02-18T16:43:40.867Z,5.33
2019-02-18T16:58:51.874Z,3.17
2019-02-18T17:01:22.132Z,3.27
2019-02-18T17:03:51.851Z,3.93
2019-02-18T17:06:22.816Z,3.50
2019-02-18T17:08:53.933Z,3.90
2019-02-18T17:11:24.386Z,3.97
2019-02-18T17:13:54.663Z,3.10
2019-02-18T17:16:24.455Z,3.43
2019-02-18T17:18:54.967Z,3.73
2019-02-18T17:21:25.049Z,4.97
2019-02-18T17:23:55.246Z,4.87
2019-02-18T17:26:25.595Z,4.50
2019-02-18T17:28:56.541Z,4.47
2019-02-18T17:31:27.160Z,3.30
2019-02-18T17:33:56.684Z,3.40
2019-02-18T17:36:26.464Z,4.20
2019-02-18T17:38:57.747Z,4.87
2019-02-18T17:41:30.187Z,4.70
2019-02-18T17:44:00.037Z,4.80
2019-02-18T17:46:29.990Z,5.27
2019-02-18T17:48:59.847Z,6.20
2019-02-18T17:51:29.615Z,7.80
2019-02-18T17:53:59.845Z,6.30
2019-02-18T17:56:29.934Z,5.80
2019-02-18T17:59:00.150Z,13.13
2019-02-18T18:01:29.732Z,9.10
2019-02-18T18:03:59.820Z,8.60
2019-02-18T18:06:30.732Z,7.83
2019-02-18T18:09:00.378Z,9.20
2019-02-18T18:11:30.918Z,7.50
2019-02-18T18:14:02.321Z,8.50
2019-02-18T18:16:32.417Z,11.40
2019-02-18T18:19:09.180Z,10.93
2019-02-18T18:21:33.180Z,13.60
2019-02-18T18:24:03.551Z,12.53
2019-02-18T18:26:32.980Z,10.33
2019-02-18T18:29:06.940Z,10.20
2019-02-18T18:31:36.992Z,13.67
2019-02-18T18:34:06.759Z,12.10
2019-02-18T19:01:45.524Z,12.43
2019-02-18T19:04:50.243Z,11.60
2019-02-18T19:08:21.677Z,13.27
2019-02-18T19:10:58.257Z,10.67
2019-02-18T19:13:48.846Z,13.97
2019-02-18T19:17:12.245Z,11.27
2019-02-18T19:21:08.262Z,11.60
2019-02-18T19:24:48.737Z,12.30
2019-02-18T19:35:38.210Z,13.40
2019-02-18T19:39:08.445Z,12.03
2019-02-18T19:42:01.012Z,11.60
2019-02-18T19:44:46.880Z,16.93
2019-02-18T19:47:27.632Z,15.83
2019-02-18T19:50:47.071Z,15.13
2019-02-18T19:54:03.916Z,15.60
2019-02-18T19:56:37.542Z,13.90
2019-02-18T19:59:44.437Z,10.83
2019-02-18T20:02:32.340Z,10.63
2019-02-18T20:05:09.312Z,13.40
2019-02-18T20:07:45.265Z,14.40
2019-02-18T20:11:32.405Z,14.53
2019-02-18T20:21:29.208Z,11.97
2019-02-18T20:24:24.285Z,12.17
2019-02-18T20:27:05.974Z,15.53
2019-02-18T20:29:44.230Z,15.70
2019-02-18T20:32:49.628Z,11.70
2019-02-18T20:35:40.253Z,13.00
2019-02-18T20:38:21.955Z,13.93
2019-02-18T20:41:14.511Z,17.03
2019-02-18T20:43:44.935Z,15.30
2019-02-18T20:46:15.208Z,14.53
2019-02-18T20:48:57.343Z,15.43
2019-02-18T20:51:41.973Z,16.90
2019-02-18T20:55:08.010Z,16.70
2019-02-18T20:57:49.308Z,16.13
2019-02-18T21:00:22.687Z,19.20
2019-02-18T21:05:49.490Z,16.87
2019-02-18T21:08:36.561Z,16.70
2019-02-18T21:11:12.278Z,15.63
2019-02-18T21:14:52.945Z,16.23
2019-02-18T21:17:33.765Z,16.57
2019-02-18T21:20:30.762Z,16.43
2019-02-18T21:23:38.438Z,15.57
2019-02-18T21:26:36.543Z,16.37
2019-02-18T21:33:41.035Z,16.87
2019-02-18T21:37:03.223Z,17.60
2019-02-18T21:42:53.979Z,17.60
2019-02-18T21:45:51.574Z,17.07
2019-02-18T21:48:39.089Z,17.97
2019-02-18T21:51:11.474Z,17.27
2019-02-18T21:53:42.932Z,15.93
2019-02-18T21:56:13.492Z,16.30
2019-02-18T21:58:46.787Z,17.60
2019-02-18T22:01:33.802Z,17.87
2019-02-18T22:04:07.098Z,17.57
2019-02-18T22:06:44.343Z,17.13
2019-02-18T22:09:24.144Z,14.40
2019-02-18T22:11:55.119Z,15.80
2019-02-18T22:14:33.386Z,15.83
2019-02-18T22:17:12.274Z,14.70
2019-02-18T22:20:10.704Z,15.87
2019-02-18T22:22:56.470Z,16.30
2019-02-18T22:25:58.412Z,14.93
2019-02-18T22:29:03.988Z,13.60
2019-02-18T22:31:50.610Z,13.30
2019-02-18T22:34:21.421Z,15.70
2019-02-18T22:36:54.502Z,14.87
2019-02-18T22:39:54.859Z,15.67
2019-02-18T22:43:26.054Z,14.77
2019-02-18T22:46:35.518Z,15.20
2019-02-18T22:49:39.723Z,14.20
2019-02-18T22:52:10.884Z,14.33
2019-02-18T22:54:42.217Z,14.93
2019-02-18T22:57:16.528Z,14.50
2019-02-18T22:59:47.099Z,13.97
2019-02-18T23:02:19.007Z,14.80
2019-02-18T23:04:50.458Z,14.07
2019-02-18T23:07:25.672Z,11.07
2019-02-18T23:13:58.017Z,11.60
2019-02-18T23:16:39.880Z,12.40
2019-02-18T23:20:22.946Z,12.77
2019-02-18T23:23:27.040Z,12.10
2019-02-18T23:31:09.515Z,12.50
2019-02-18T23:32:15.077Z,11.60
2019-02-18T23:34:55.050Z,12.10
2019-02-18T23:38:02.312Z,12.10
2019-02-18T23:40:35.778Z,11.90
2019-02-18T23:46:03.314Z,11.63
2019-02-18T23:51:28.261Z,13.23
2019-02-18T23:53:58.722Z,13.20
2019-02-18T23:56:40.057Z,11.57
2019-02-18T23:59:31.912Z,12.70
